sensor_id;sensor_type;location;lat;lon;timestamp;pressure;altitude;pressure_sealevel;temperature;humidity
51526;BME280;37611;51.794;21.590;2022-09-17T00:01:28;98755.98;;;8.15;100.00
51526;BME280;37611;51.794;21.590;2022-09-17T00:05:32;98753.67;;;8.13;100.00
51526;BME280;37611;51.794;21.590;2022-09-17T00:09:34;98760.55;;;8.07;100.00
51526;BME280;37611;51.794;21.590;2022-09-17T00:13:36;98758.73;;;8.01;100.00
51526;BME280;37611;51.794;21.590;2022-09-17T00:17:38;98761.03;;;7.95;100.00
51526;BME280;37611;51.794;21.590;2022-09-17T00:21:40;98766.20;;;7.93;100.00
51526;BME280;37611;51.794;21.590;2022-09-17T00:25:44;98768.48;;;7.96;100.00
51526;BME280;37611;51.794;21.590;2022-09-17T00:29:47;98773.64;;;7.97;100.00
51526;BME280;37611;51.794;21.590;2022-09-17T00:33:49;98776.77;;;7.99;100.00
51526;BME280;37611;51.794;21.590;2022-09-17T00:37:52;98776.68;;;7.98;100.00
51526;BME280;37611;51.794;21.590;2022-09-17T00:41:53;98772.42;;;7.99;100.00
51526;BME280;37611;51.794;21.590;2022-09-17T00:45:55;98769.33;;;7.95;100.00
51526;BME280;37611;51.794;21.590;2022-09-17T00:50:11;98774.89;;;7.91;100.00
51526;BME280;37611;51.794;21.590;2022-09-17T00:54:14;98779.64;;;7.82;100.00
51526;BME280;37611;51.794;21.590;2022-09-17T00:58:17;98779.15;;;7.75;100.00
51526;BME280;37611;51.794;21.590;2022-09-17T01:02:21;98773.01;;;7.69;100.00
51526;BME280;37611;51.794;21.590;2022-09-17T01:24:29;98766.89;;;7.61;100.00
51526;BME280;37611;51.794;21.590;2022-09-17T01:33:19;98768.63;;;7.50;100.00
51526;BME280;37611;51.794;21.590;2022-09-17T01:37:30;98766.11;;;7.47;100.00
51526;BME280;37611;51.794;21.590;2022-09-17T01:45:45;98763.49;;;7.39;100.00
51526;BME280;37611;51.794;21.590;2022-09-17T01:49:54;98762.15;;;7.39;100.00
51526;BME280;37611;51.794;21.590;2022-09-17T01:54:13;98762.73;;;7.40;100.00
51526;BME280;37611;51.794;21.590;2022-09-17T01:58:28;98767.10;;;7.37;100.00
51526;BME280;37611;51.794;21.590;2022-09-17T02:02:39;98762.54;;;7.34;100.00
51526;BME280;37611;51.794;21.590;2022-09-17T02:06:46;98765.61;;;7.30;100.00
51526;BME280;37611;51.794;21.590;2022-09-17T02:11:12;98758.98;;;7.30;100.00
51526;BME280;37611;51.794;21.590;2022-09-17T02:15:23;98760.23;;;7.29;100.00
51526;BME280;37611;51.794;21.590;2022-09-17T02:19:29;98760.83;;;7.25;100.00
51526;BME280;37611;51.794;21.590;2022-09-17T02:23:36;98755.99;;;7.22;100.00
51526;BME280;37611;51.794;21.590;2022-09-17T02:32:07;98753.19;;;7.29;100.00
51526;BME280;37611;51.794;21.590;2022-09-17T02:36:09;98753.48;;;7.26;100.00
51526;BME280;37611;51.794;21.590;2022-09-17T02:40:15;98757.95;;;7.21;100.00
51526;BME280;37611;51.794;21.590;2022-09-17T02:57:29;98749.12;;;7.11;100.00
51526;BME280;37611;51.794;21.590;2022-09-17T03:01:39;98746.23;;;7.11;100.00
51526;BME280;37611;51.794;21.590;2022-09-17T03:05:43;98746.96;;;7.10;100.00
51526;BME280;37611;51.794;21.590;2022-09-17T03:09:45;98746.84;;;7.10;100.00
51526;BME280;37611;51.794;21.590;2022-09-17T03:13:47;98748.79;;;7.06;100.00
51526;BME280;37611;51.794;21.590;2022-09-17T03:17:49;98751.42;;;7.06;100.00
51526;BME280;37611;51.794;21.590;2022-09-17T03:21:51;98748.67;;;7.04;100.00
51526;BME280;37611;51.794;21.590;2022-09-17T03:25:53;98740.16;;;6.99;100.00
51526;BME280;37611;51.794;21.590;2022-09-17T03:29:55;98738.25;;;6.94;100.00
51526;BME280;37611;51.794;21.590;2022-09-17T03:33:57;98747.38;;;6.90;100.00
51526;BME280;37611;51.794;21.590;2022-09-17T03:37:59;98746.20;;;6.90;100.00
51526;BME280;37611;51.794;21.590;2022-09-17T03:42:00;98748.70;;;6.86;100.00
51526;BME280;37611;51.794;21.590;2022-09-17T03:46:02;98749.17;;;6.87;100.00
51526;BME280;37611;51.794;21.590;2022-09-17T03:50:05;98743.50;;;6.91;100.00
51526;BME280;37611;51.794;21.590;2022-09-17T03:54:07;98745.88;;;6.89;100.00
51526;BME280;37611;51.794;21.590;2022-09-17T03:58:09;98749.23;;;6.76;100.00
51526;BME280;37611;51.794;21.590;2022-09-17T04:02:11;98748.73;;;6.60;100.00
51526;BME280;37611;51.794;21.590;2022-09-17T04:06:13;98744.44;;;6.56;100.00
51526;BME280;37611;51.794;21.590;2022-09-17T04:10:15;98742.79;;;6.55;100.00
51526;BME280;37611;51.794;21.590;2022-09-17T04:14:16;98745.51;;;6.57;100.00
51526;BME280;37611;51.794;21.590;2022-09-17T04:18:18;98748.04;;;6.55;100.00
51526;BME280;37611;51.794;21.590;2022-09-17T04:22:20;98749.30;;;6.53;100.00
51526;BME280;37611;51.794;21.590;2022-09-17T04:26:21;98756.29;;;6.54;100.00
51526;BME280;37611;51.794;21.590;2022-09-17T04:30:23;98759.55;;;6.54;100.00
51526;BME280;37611;51.794;21.590;2022-09-17T04:34:25;98754.94;;;6.59;100.00
51526;BME280;37611;51.794;21.590;2022-09-17T04:38:26;98758.31;;;6.63;100.00
51526;BME280;37611;51.794;21.590;2022-09-17T04:42:28;98759.35;;;6.61;100.00
51526;BME280;37611;51.794;21.590;2022-09-17T04:46:30;98757.41;;;6.58;100.00
51526;BME280;37611;51.794;21.590;2022-09-17T04:50:32;98762.61;;;6.67;100.00
51526;BME280;37611;51.794;21.590;2022-09-17T04:54:34;98763.45;;;6.77;100.00
51526;BME280;37611;51.794;21.590;2022-09-17T04:58:36;98760.23;;;6.93;100.00
51526;BME280;37611;51.794;21.590;2022-09-17T05:02:37;98762.02;;;7.20;100.00
51526;BME280;37611;51.794;21.590;2022-09-17T05:06:39;98764.21;;;7.47;100.00
51526;BME280;37611;51.794;21.590;2022-09-17T05:10:41;98767.41;;;7.71;100.00
51526;BME280;37611;51.794;21.590;2022-09-17T05:14:42;98759.43;;;7.92;100.00
51526;BME280;37611;51.794;21.590;2022-09-17T05:18:44;98755.92;;;8.14;100.00
51526;BME280;37611;51.794;21.590;2022-09-17T05:22:48;98747.14;;;8.37;100.00
51526;BME280;37611;51.794;21.590;2022-09-17T05:26:52;98741.14;;;8.65;100.00
51526;BME280;37611;51.794;21.590;2022-09-17T05:30:53;98743.33;;;8.94;100.00
51526;BME280;37611;51.794;21.590;2022-09-17T05:34:55;98746.02;;;9.15;100.00
51526;BME280;37611;51.794;21.590;2022-09-17T05:38:57;98743.98;;;9.33;100.00
51526;BME280;37611;51.794;21.590;2022-09-17T05:43:00;98744.86;;;9.52;100.00
51526;BME280;37611;51.794;21.590;2022-09-17T05:47:03;98743.16;;;9.62;100.00
51526;BME280;37611;51.794;21.590;2022-09-17T05:51:05;98741.02;;;9.65;100.00
51526;BME280;37611;51.794;21.590;2022-09-17T05:55:07;98741.65;;;9.77;100.00
51526;BME280;37611;51.794;21.590;2022-09-17T05:59:09;98738.19;;;9.98;100.00
51526;BME280;37611;51.794;21.590;2022-09-17T06:03:12;98737.36;;;10.12;100.00
51526;BME280;37611;51.794;21.590;2022-09-17T06:07:14;98744.31;;;10.29;100.00
51526;BME280;37611;51.794;21.590;2022-09-17T06:11:16;98739.38;;;10.40;100.00
51526;BME280;37611;51.794;21.590;2022-09-17T06:15:17;98735.91;;;10.53;100.00
51526;BME280;37611;51.794;21.590;2022-09-17T06:19:19;98722.36;;;10.68;100.00
51526;BME280;37611;51.794;21.590;2022-09-17T06:23:21;98727.63;;;10.84;100.00
51526;BME280;37611;51.794;21.590;2022-09-17T06:27:23;98729.20;;;10.94;100.00
51526;BME280;37611;51.794;21.590;2022-09-17T06:31:24;98732.15;;;11.09;99.58
51526;BME280;37611;51.794;21.590;2022-09-17T06:35:26;98733.14;;;11.15;98.58
51526;BME280;37611;51.794;21.590;2022-09-17T06:39:28;98724.59;;;11.29;98.96
51526;BME280;37611;51.794;21.590;2022-09-17T06:43:30;98721.21;;;11.54;99.06
51526;BME280;37611;51.794;21.590;2022-09-17T06:47:32;98727.30;;;11.81;98.76
51526;BME280;37611;51.794;21.590;2022-09-17T06:51:33;98732.34;;;12.03;96.36
51526;BME280;37611;51.794;21.590;2022-09-17T06:55:35;98735.95;;;12.10;94.86
51526;BME280;37611;51.794;21.590;2022-09-17T06:59:37;98742.70;;;12.22;95.27
51526;BME280;37611;51.794;21.590;2022-09-17T07:03:41;98747.45;;;12.29;92.99
51526;BME280;37611;51.794;21.590;2022-09-17T07:07:46;98750.05;;;12.31;93.48
51526;BME280;37611;51.794;21.590;2022-09-17T07:11:47;98741.13;;;12.38;93.07
51526;BME280;37611;51.794;21.590;2022-09-17T07:15:54;98735.75;;;12.49;92.98
51526;BME280;37611;51.794;21.590;2022-09-17T07:19:56;98732.70;;;12.72;93.45
51526;BME280;37611;51.794;21.590;2022-09-17T07:23:57;98733.38;;;12.91;92.24
51526;BME280;37611;51.794;21.590;2022-09-17T07:28:01;98739.77;;;12.97;90.45
51526;BME280;37611;51.794;21.590;2022-09-17T07:32:03;98743.50;;;13.01;91.19
51526;BME280;37611;51.794;21.590;2022-09-17T07:36:13;98739.17;;;13.17;89.79
51526;BME280;37611;51.794;21.590;2022-09-17T07:40:18;98739.60;;;13.38;87.35
51526;BME280;37611;51.794;21.590;2022-09-17T07:44:20;98739.16;;;13.52;87.45
51526;BME280;37611;51.794;21.590;2022-09-17T07:48:23;98733.33;;;13.63;85.92
51526;BME280;37611;51.794;21.590;2022-09-17T07:52:25;98732.11;;;13.79;86.57
51526;BME280;37611;51.794;21.590;2022-09-17T07:56:28;98739.65;;;13.91;85.11
51526;BME280;37611;51.794;21.590;2022-09-17T08:00:29;98748.73;;;14.07;83.40
51526;BME280;37611;51.794;21.590;2022-09-17T08:04:31;98755.46;;;14.20;82.73
51526;BME280;37611;51.794;21.590;2022-09-17T08:08:33;98741.67;;;14.25;82.15
51526;BME280;37611;51.794;21.590;2022-09-17T08:12:36;98738.07;;;14.22;80.87
51526;BME280;37611;51.794;21.590;2022-09-17T08:16:38;98744.44;;;14.22;80.59
51526;BME280;37611;51.794;21.590;2022-09-17T08:20:40;98749.22;;;14.53;80.12
51526;BME280;37611;51.794;21.590;2022-09-17T08:24:42;98750.64;;;14.97;80.18
51526;BME280;37611;51.794;21.590;2022-09-17T08:28:45;98744.16;;;15.08;78.78
51526;BME280;37611;51.794;21.590;2022-09-17T08:32:48;98749.43;;;15.39;78.01
51526;BME280;37611;51.794;21.590;2022-09-17T08:36:49;98744.84;;;15.44;76.33
51526;BME280;37611;51.794;21.590;2022-09-17T08:45:19;98760.45;;;14.95;76.69
51526;BME280;37611;51.794;21.590;2022-09-17T08:49:28;98773.27;;;14.60;77.59
51526;BME280;37611;51.794;21.590;2022-09-17T08:58:30;98775.45;;;14.11;79.08
51526;BME280;37611;51.794;21.590;2022-09-17T09:02:44;98776.93;;;13.90;79.64
51526;BME280;37611;51.794;21.590;2022-09-17T09:11:00;98773.84;;;13.69;80.23
51526;BME280;37611;51.794;21.590;2022-09-17T09:15:14;98775.98;;;13.57;80.82
51526;BME280;37611;51.794;21.590;2022-09-17T09:19:29;98776.78;;;13.48;81.23
51526;BME280;37611;51.794;21.590;2022-09-17T09:23:52;98776.88;;;13.39;81.51
51526;BME280;37611;51.794;21.590;2022-09-17T09:28:07;98774.90;;;13.38;82.04
51526;BME280;37611;51.794;21.590;2022-09-17T09:36:29;98774.87;;;13.85;83.10
51526;BME280;37611;51.794;21.590;2022-09-17T09:40:41;98773.27;;;14.02;82.71
51526;BME280;37611;51.794;21.590;2022-09-17T09:44:44;98773.84;;;13.97;81.79
51526;BME280;37611;51.794;21.590;2022-09-17T09:53:35;98786.45;;;13.65;83.06
51526;BME280;37611;51.794;21.590;2022-09-17T09:57:47;98774.29;;;13.66;83.44
51526;BME280;37611;51.794;21.590;2022-09-17T10:01:50;98771.77;;;13.74;84.00
51526;BME280;37611;51.794;21.590;2022-09-17T10:06:08;98771.58;;;13.79;83.90
51526;BME280;37611;51.794;21.590;2022-09-17T10:10:11;98764.67;;;13.76;83.24
51526;BME280;37611;51.794;21.590;2022-09-17T10:14:26;98763.50;;;13.90;82.92
51526;BME280;37611;51.794;21.590;2022-09-17T10:18:29;98764.20;;;14.08;81.77
51526;BME280;37611;51.794;21.590;2022-09-17T10:22:34;98761.84;;;14.18;81.58
51526;BME280;37611;51.794;21.590;2022-09-17T10:26:37;98776.50;;;14.25;82.22
51526;BME280;37611;51.794;21.590;2022-09-17T10:30:54;98783.36;;;14.29;82.12
51526;BME280;37611;51.794;21.590;2022-09-17T10:39:35;98808.33;;;14.49;81.71
51526;BME280;37611;51.794;21.590;2022-09-17T10:43:44;98818.88;;;14.37;81.54
51526;BME280;37611;51.794;21.590;2022-09-17T10:47:46;98815.95;;;14.35;81.84
51526;BME280;37611;51.794;21.590;2022-09-17T10:51:48;98800.23;;;14.46;81.44
51526;BME280;37611;51.794;21.590;2022-09-17T10:56:04;98798.61;;;14.43;81.31
51526;BME280;37611;51.794;21.590;2022-09-17T11:00:15;98808.02;;;14.34;81.46
51526;BME280;37611;51.794;21.590;2022-09-17T11:08:42;98803.35;;;14.34;82.08
51526;BME280;37611;51.794;21.590;2022-09-17T11:21:55;98777.29;;;15.23;78.90
51526;BME280;37611;51.794;21.590;2022-09-17T11:26:07;98779.93;;;15.23;79.52
51526;BME280;37611;51.794;21.590;2022-09-17T11:30:20;98793.10;;;15.09;79.68
51526;BME280;37611;51.794;21.590;2022-09-17T11:38:50;98803.27;;;14.20;81.61
51526;BME280;37611;51.794;21.590;2022-09-17T11:47:34;98824.55;;;13.70;84.78
51526;BME280;37611;51.794;21.590;2022-09-17T11:51:40;98826.89;;;13.60;86.02
51526;BME280;37611;51.794;21.590;2022-09-17T11:55:51;98826.23;;;13.55;86.45
51526;BME280;37611;51.794;21.590;2022-09-17T12:04:26;98823.66;;;13.27;87.73
51526;BME280;37611;51.794;21.590;2022-09-17T12:12:51;98823.29;;;13.05;89.64
51526;BME280;37611;51.794;21.590;2022-09-17T12:16:58;98821.59;;;12.96;90.54
51526;BME280;37611;51.794;21.590;2022-09-17T12:21:05;98819.27;;;12.96;91.06
51526;BME280;37611;51.794;21.590;2022-09-17T12:25:12;98816.63;;;12.84;90.99
51526;BME280;37611;51.794;21.590;2022-09-17T12:38:57;98809.17;;;12.70;92.18
51526;BME280;37611;51.794;21.590;2022-09-17T12:51:54;98815.73;;;12.65;93.61
51526;BME280;37611;51.794;21.590;2022-09-17T13:00:37;98805.37;;;12.29;94.62
51526;BME280;37611;51.794;21.590;2022-09-17T13:09:35;98807.27;;;12.18;96.03
51526;BME280;37611;51.794;21.590;2022-09-17T13:13:59;98802.23;;;12.16;96.36
51526;BME280;37611;51.794;21.590;2022-09-17T13:22:16;98794.38;;;12.27;96.75
51526;BME280;37611;51.794;21.590;2022-09-17T13:26:19;98801.78;;;12.32;96.48
51526;BME280;37611;51.794;21.590;2022-09-17T13:30:23;98808.41;;;12.30;96.14
51526;BME280;37611;51.794;21.590;2022-09-17T13:34:27;98809.12;;;12.27;96.55
51526;BME280;37611;51.794;21.590;2022-09-17T13:38:39;98801.92;;;12.30;96.75
51526;BME280;37611;51.794;21.590;2022-09-17T13:42:45;98800.17;;;12.29;97.04
51526;BME280;37611;51.794;21.590;2022-09-17T13:46:48;98798.25;;;12.30;97.89
51526;BME280;37611;51.794;21.590;2022-09-17T13:50:49;98794.70;;;12.33;98.21
51526;BME280;37611;51.794;21.590;2022-09-17T13:54:51;98804.81;;;12.35;97.97
51526;BME280;37611;51.794;21.590;2022-09-17T13:58:53;98797.06;;;12.49;98.04
51526;BME280;37611;51.794;21.590;2022-09-17T14:07:33;98783.30;;;12.44;97.17
51526;BME280;37611;51.794;21.590;2022-09-17T14:11:36;98771.84;;;12.39;97.02
51526;BME280;37611;51.794;21.590;2022-09-17T14:19:50;98763.66;;;12.45;97.64
51526;BME280;37611;51.794;21.590;2022-09-17T14:23:58;98765.34;;;12.56;97.49
51526;BME280;37611;51.794;21.590;2022-09-17T14:28:04;98764.59;;;12.71;97.23
51526;BME280;37611;51.794;21.590;2022-09-17T14:32:16;98772.02;;;12.82;96.59
51526;BME280;37611;51.794;21.590;2022-09-17T14:36:21;98769.85;;;12.87;96.03
51526;BME280;37611;51.794;21.590;2022-09-17T14:40:25;98762.78;;;12.96;96.21
51526;BME280;37611;51.794;21.590;2022-09-17T14:44:29;98754.97;;;13.10;96.04
51526;BME280;37611;51.794;21.590;2022-09-17T14:48:34;98754.80;;;13.11;94.95
51526;BME280;37611;51.794;21.590;2022-09-17T14:52:37;98753.70;;;13.08;95.19
51526;BME280;37611;51.794;21.590;2022-09-17T14:56:46;98758.34;;;13.10;95.17
51526;BME280;37611;51.794;21.590;2022-09-17T15:00:51;98761.77;;;13.09;93.59
51526;BME280;37611;51.794;21.590;2022-09-17T15:04:53;98766.30;;;13.05;94.06
51526;BME280;37611;51.794;21.590;2022-09-17T15:08:56;98757.37;;;12.98;93.40
51526;BME280;37611;51.794;21.590;2022-09-17T15:12:58;98750.92;;;12.90;92.93
51526;BME280;37611;51.794;21.590;2022-09-17T15:17:01;98750.09;;;12.86;93.47
51526;BME280;37611;51.794;21.590;2022-09-17T15:21:13;98739.92;;;12.85;93.46
51526;BME280;37611;51.794;21.590;2022-09-17T15:25:21;98727.84;;;12.86;93.82
51526;BME280;37611;51.794;21.590;2022-09-17T15:29:27;98730.20;;;12.86;94.01
51526;BME280;37611;51.794;21.590;2022-09-17T15:33:30;98740.11;;;12.82;93.74
51526;BME280;37611;51.794;21.590;2022-09-17T15:37:42;98746.48;;;12.71;93.54
51526;BME280;37611;51.794;21.590;2022-09-17T15:41:54;98742.69;;;12.66;93.70
51526;BME280;37611;51.794;21.590;2022-09-17T15:45:56;98739.23;;;12.63;94.24
51526;BME280;37611;51.794;21.590;2022-09-17T15:54:30;98724.41;;;12.68;94.72
51526;BME280;37611;51.794;21.590;2022-09-17T15:58:50;98736.41;;;12.69;94.62
51526;BME280;37611;51.794;21.590;2022-09-17T16:02:53;98747.19;;;12.66;94.63
51526;BME280;37611;51.794;21.590;2022-09-17T16:11:04;98766.73;;;12.46;94.30
51526;BME280;37611;51.794;21.590;2022-09-17T16:15:07;98768.64;;;12.38;95.15
51526;BME280;37611;51.794;21.590;2022-09-17T16:19:09;98770.56;;;12.35;95.54
51526;BME280;37611;51.794;21.590;2022-09-17T16:23:11;98770.52;;;12.37;95.91
51526;BME280;37611;51.794;21.590;2022-09-17T16:27:19;98763.30;;;12.37;95.95
51526;BME280;37611;51.794;21.590;2022-09-17T16:31:23;98754.05;;;12.38;95.86
51526;BME280;37611;51.794;21.590;2022-09-17T16:35:25;98748.02;;;12.36;96.09
51526;BME280;37611;51.794;21.590;2022-09-17T16:39:27;98748.08;;;12.27;95.97
51526;BME280;37611;51.794;21.590;2022-09-17T16:43:28;98745.91;;;12.17;96.33
51526;BME280;37611;51.794;21.590;2022-09-17T16:47:33;98747.33;;;12.11;96.52
51526;BME280;37611;51.794;21.590;2022-09-17T16:51:37;98751.61;;;12.04;97.20
51526;BME280;37611;51.794;21.590;2022-09-17T16:55:39;98755.20;;;12.02;97.57
51526;BME280;37611;51.794;21.590;2022-09-17T16:59:40;98755.48;;;11.96;97.80
51526;BME280;37611;51.794;21.590;2022-09-17T17:03:42;98753.05;;;11.94;98.17
51526;BME280;37611;51.794;21.590;2022-09-17T17:07:46;98756.13;;;11.89;98.20
51526;BME280;37611;51.794;21.590;2022-09-17T17:11:47;98753.85;;;11.89;98.31
51526;BME280;37611;51.794;21.590;2022-09-17T17:15:49;98743.23;;;11.87;98.74
51526;BME280;37611;51.794;21.590;2022-09-17T17:19:51;98735.38;;;11.86;98.56
51526;BME280;37611;51.794;21.590;2022-09-17T17:23:53;98733.70;;;11.78;98.06
51526;BME280;37611;51.794;21.590;2022-09-17T17:27:55;98732.48;;;11.65;98.47
51526;BME280;37611;51.794;21.590;2022-09-17T17:31:57;98748.91;;;11.57;98.71
51526;BME280;37611;51.794;21.590;2022-09-17T17:35:59;98754.44;;;11.46;99.18
51526;BME280;37611;51.794;21.590;2022-09-17T17:40:01;98761.15;;;11.43;99.30
51526;BME280;37611;51.794;21.590;2022-09-17T17:44:08;98758.39;;;11.41;99.36
51526;BME280;37611;51.794;21.590;2022-09-17T17:48:12;98764.85;;;11.35;99.46
51526;BME280;37611;51.794;21.590;2022-09-17T17:52:14;98776.17;;;11.24;99.46
51526;BME280;37611;51.794;21.590;2022-09-17T17:56:16;98779.81;;;11.12;99.86
51526;BME280;37611;51.794;21.590;2022-09-17T18:00:18;98777.36;;;11.03;99.70
51526;BME280;37611;51.794;21.590;2022-09-17T18:04:20;98774.35;;;10.98;99.53
51526;BME280;37611;51.794;21.590;2022-09-17T18:08:23;98771.35;;;10.93;99.57
51526;BME280;37611;51.794;21.590;2022-09-17T18:12:25;98764.34;;;10.89;99.85
51526;BME280;37611;51.794;21.590;2022-09-17T18:16:28;98762.77;;;10.86;99.81
51526;BME280;37611;51.794;21.590;2022-09-17T18:20:30;98764.73;;;10.78;99.76
51526;BME280;37611;51.794;21.590;2022-09-17T18:24:31;98770.59;;;10.67;99.77
51526;BME280;37611;51.794;21.590;2022-09-17T18:28:34;98770.80;;;10.58;100.00
51526;BME280;37611;51.794;21.590;2022-09-17T18:32:36;98774.91;;;10.52;100.00
51526;BME280;37611;51.794;21.590;2022-09-17T18:36:39;98776.67;;;10.47;100.00
51526;BME280;37611;51.794;21.590;2022-09-17T18:40:42;98780.01;;;10.46;100.00
51526;BME280;37611;51.794;21.590;2022-09-17T18:44:44;98779.40;;;10.40;100.00
51526;BME280;37611;51.794;21.590;2022-09-17T18:48:50;98773.27;;;10.35;100.00
51526;BME280;37611;51.794;21.590;2022-09-17T18:52:52;98765.47;;;10.31;100.00
51526;BME280;37611;51.794;21.590;2022-09-17T18:56:54;98753.77;;;10.26;100.00
51526;BME280;37611;51.794;21.590;2022-09-17T19:00:56;98742.81;;;10.22;100.00
51526;BME280;37611;51.794;21.590;2022-09-17T19:04:58;98742.11;;;10.21;100.00
51526;BME280;37611;51.794;21.590;2022-09-17T19:09:00;98744.77;;;10.16;100.00
51526;BME280;37611;51.794;21.590;2022-09-17T19:13:03;98739.13;;;10.08;100.00
51526;BME280;37611;51.794;21.590;2022-09-17T19:17:05;98741.08;;;9.91;100.00
51526;BME280;37611;51.794;21.590;2022-09-17T19:21:10;98741.20;;;9.79;100.00
51526;BME280;37611;51.794;21.590;2022-09-17T19:25:12;98742.67;;;9.70;100.00
51526;BME280;37611;51.794;21.590;2022-09-17T19:29:14;98733.14;;;9.58;100.00
51526;BME280;37611;51.794;21.590;2022-09-17T19:33:16;98729.28;;;9.50;100.00
51526;BME280;37611;51.794;21.590;2022-09-17T19:37:17;98722.71;;;9.43;100.00
51526;BME280;37611;51.794;21.590;2022-09-17T19:41:20;98716.53;;;9.42;100.00
51526;BME280;37611;51.794;21.590;2022-09-17T19:45:28;98719.36;;;9.45;100.00
51526;BME280;37611;51.794;21.590;2022-09-17T19:49:30;98725.17;;;9.47;100.00
51526;BME280;37611;51.794;21.590;2022-09-17T19:53:32;98729.34;;;9.46;100.00
51526;BME280;37611;51.794;21.590;2022-09-17T19:57:33;98733.91;;;9.44;100.00
51526;BME280;37611;51.794;21.590;2022-09-17T20:01:37;98730.59;;;9.49;100.00
51526;BME280;37611;51.794;21.590;2022-09-17T20:05:38;98728.02;;;9.56;100.00
51526;BME280;37611;51.794;21.590;2022-09-17T20:09:40;98723.99;;;9.57;100.00
51526;BME280;37611;51.794;21.590;2022-09-17T20:13:42;98720.88;;;9.51;100.00
51526;BME280;37611;51.794;21.590;2022-09-17T20:17:44;98721.14;;;9.43;100.00
51526;BME280;37611;51.794;21.590;2022-09-17T20:21:45;98718.86;;;9.37;100.00
51526;BME280;37611;51.794;21.590;2022-09-17T20:25:51;98715.02;;;9.23;100.00
51526;BME280;37611;51.794;21.590;2022-09-17T20:29:53;98717.31;;;9.04;100.00
51526;BME280;37611;51.794;21.590;2022-09-17T20:33:57;98718.02;;;8.90;100.00
51526;BME280;37611;51.794;21.590;2022-09-17T20:37:59;98716.95;;;8.78;100.00
51526;BME280;37611;51.794;21.590;2022-09-17T20:42:02;98720.10;;;8.72;100.00
51526;BME280;37611;51.794;21.590;2022-09-17T20:46:05;98720.50;;;8.76;100.00
51526;BME280;37611;51.794;21.590;2022-09-17T20:50:08;98711.92;;;8.72;100.00
51526;BME280;37611;51.794;21.590;2022-09-17T20:54:10;98709.06;;;8.58;100.00
51526;BME280;37611;51.794;21.590;2022-09-17T20:58:12;98710.05;;;8.49;100.00
51526;BME280;37611;51.794;21.590;2022-09-17T21:02:14;98706.68;;;8.43;100.00
51526;BME280;37611;51.794;21.590;2022-09-17T21:06:17;98704.28;;;8.40;100.00
51526;BME280;37611;51.794;21.590;2022-09-17T21:10:19;98704.35;;;8.40;100.00
51526;BME280;37611;51.794;21.590;2022-09-17T21:14:21;98704.09;;;8.43;100.00
51526;BME280;37611;51.794;21.590;2022-09-17T21:18:24;98701.48;;;8.53;100.00
51526;BME280;37611;51.794;21.590;2022-09-17T21:22:26;98702.33;;;8.66;100.00
51526;BME280;37611;51.794;21.590;2022-09-17T21:26:28;98702.65;;;8.76;100.00
51526;BME280;37611;51.794;21.590;2022-09-17T21:30:30;98705.31;;;8.80;100.00
51526;BME280;37611;51.794;21.590;2022-09-17T21:34:32;98704.05;;;8.80;100.00
51526;BME280;37611;51.794;21.590;2022-09-17T21:38:34;98706.02;;;8.85;100.00
51526;BME280;37611;51.794;21.590;2022-09-17T21:42:35;98709.66;;;8.82;100.00
51526;BME280;37611;51.794;21.590;2022-09-17T21:46:40;98698.30;;;8.78;100.00
51526;BME280;37611;51.794;21.590;2022-09-17T21:50:42;98691.31;;;8.75;100.00
51526;BME280;37611;51.794;21.590;2022-09-17T21:54:44;98691.93;;;8.76;100.00
51526;BME280;37611;51.794;21.590;2022-09-17T21:58:50;98696.08;;;8.76;100.00
51526;BME280;37611;51.794;21.590;2022-09-17T22:02:51;98696.67;;;8.81;100.00
51526;BME280;37611;51.794;21.590;2022-09-17T22:06:53;98687.63;;;8.80;100.00
51526;BME280;37611;51.794;21.590;2022-09-17T22:11:02;98689.20;;;8.87;100.00
51526;BME280;37611;51.794;21.590;2022-09-17T22:15:05;98686.66;;;8.97;100.00
51526;BME280;37611;51.794;21.590;2022-09-17T22:19:08;98687.02;;;9.06;100.00
51526;BME280;37611;51.794;21.590;2022-09-17T22:23:11;98686.06;;;9.07;100.00
51526;BME280;37611;51.794;21.590;2022-09-17T22:27:12;98681.00;;;8.98;100.00
51526;BME280;37611;51.794;21.590;2022-09-17T22:31:14;98680.54;;;8.93;100.00
51526;BME280;37611;51.794;21.590;2022-09-17T22:35:17;98679.52;;;8.85;100.00
51526;BME280;37611;51.794;21.590;2022-09-17T22:39:20;98676.31;;;8.72;100.00
51526;BME280;37611;51.794;21.590;2022-09-17T22:43:21;98666.27;;;8.65;100.00
51526;BME280;37611;51.794;21.590;2022-09-17T22:47:23;98669.23;;;8.66;100.00
51526;BME280;37611;51.794;21.590;2022-09-17T22:51:26;98666.45;;;8.68;100.00
51526;BME280;37611;51.794;21.590;2022-09-17T22:55:29;98663.73;;;8.72;100.00
51526;BME280;37611;51.794;21.590;2022-09-17T22:59:31;98665.06;;;8.65;100.00
51526;BME280;37611;51.794;21.590;2022-09-17T23:03:33;98658.95;;;8.68;100.00
51526;BME280;37611;51.794;21.590;2022-09-17T23:07:35;98661.29;;;8.66;100.00
51526;BME280;37611;51.794;21.590;2022-09-17T23:11:38;98659.21;;;8.63;100.00
51526;BME280;37611;51.794;21.590;2022-09-17T23:15:40;98655.05;;;8.59;100.00
51526;BME280;37611;51.794;21.590;2022-09-17T23:19:42;98657.43;;;8.61;100.00
51526;BME280;37611;51.794;21.590;2022-09-17T23:23:45;98653.59;;;8.61;100.00
51526;BME280;37611;51.794;21.590;2022-09-17T23:27:47;98648.92;;;8.56;100.00
51526;BME280;37611;51.794;21.590;2022-09-17T23:31:49;98647.85;;;8.53;100.00
51526;BME280;37611;51.794;21.590;2022-09-17T23:35:51;98645.92;;;8.52;100.00
51526;BME280;37611;51.794;21.590;2022-09-17T23:39:53;98648.44;;;8.46;100.00
51526;BME280;37611;51.794;21.590;2022-09-17T23:43:58;98646.81;;;8.45;100.00
51526;BME280;37611;51.794;21.590;2022-09-17T23:48:01;98650.01;;;8.43;100.00